sensor_id;sensor_type;location;lat;lon;timestamp;P1;durP1;ratioP1;P2;durP2;ratioP2
18789;SDS011;9523;42.650;23.386;2023-04-08T00:02:28;16.87;;;11.20;;
18789;SDS011;9523;42.650;23.386;2023-04-08T00:04:55;17.67;;;12.47;;
18789;SDS011;9523;42.650;23.386;2023-04-08T00:07:23;20.43;;;11.27;;
18789;SDS011;9523;42.650;23.386;2023-04-08T00:09:50;17.73;;;12.77;;
18789;SDS011;9523;42.650;23.386;2023-04-08T00:12:17;15.57;;;11.80;;
18789;SDS011;9523;42.650;23.386;2023-04-08T00:14:44;17.50;;;11.70;;
18789;SDS011;9523;42.650;23.386;2023-04-08T00:17:11;16.73;;;11.73;;
18789;SDS011;9523;42.650;23.386;2023-04-08T00:19:37;16.63;;;11.43;;
18789;SDS011;9523;42.650;23.386;2023-04-08T00:22:04;16.73;;;11.63;;
18789;SDS011;9523;42.650;23.386;2023-04-08T00:24:32;16.63;;;12.07;;
18789;SDS011;9523;42.650;23.386;2023-04-08T00:27:00;15.80;;;11.57;;
18789;SDS011;9523;42.650;23.386;2023-04-08T00:29:27;17.70;;;11.43;;
18789;SDS011;9523;42.650;23.386;2023-04-08T00:31:57;18.33;;;11.83;;
18789;SDS011;9523;42.650;23.386;2023-04-08T00:34:24;18.03;;;11.60;;
18789;SDS011;9523;42.650;23.386;2023-04-08T00:36:51;18.17;;;11.93;;
18789;SDS011;9523;42.650;23.386;2023-04-08T00:39:18;18.40;;;11.97;;
18789;SDS011;9523;42.650;23.386;2023-04-08T00:41:46;19.83;;;12.77;;
18789;SDS011;9523;42.650;23.386;2023-04-08T00:44:13;16.10;;;11.47;;
18789;SDS011;9523;42.650;23.386;2023-04-08T00:46:40;18.03;;;11.43;;
18789;SDS011;9523;42.650;23.386;2023-04-08T00:49:07;19.43;;;11.67;;
18789;SDS011;9523;42.650;23.386;2023-04-08T00:51:34;17.77;;;11.67;;
18789;SDS011;9523;42.650;23.386;2023-04-08T00:54:01;18.43;;;11.73;;
18789;SDS011;9523;42.650;23.386;2023-04-08T00:56:32;17.80;;;12.10;;
18789;SDS011;9523;42.650;23.386;2023-04-08T00:59:02;20.17;;;12.87;;
18789;SDS011;9523;42.650;23.386;2023-04-08T01:01:30;20.97;;;12.70;;
18789;SDS011;9523;42.650;23.386;2023-04-08T01:04:04;19.70;;;13.70;;
18789;SDS011;9523;42.650;23.386;2023-04-08T01:06:43;25.10;;;14.37;;
18789;SDS011;9523;42.650;23.386;2023-04-08T01:09:15;24.67;;;14.97;;
18789;SDS011;9523;42.650;23.386;2023-04-08T01:11:45;25.40;;;14.80;;
18789;SDS011;9523;42.650;23.386;2023-04-08T01:14:18;26.70;;;16.93;;
18789;SDS011;9523;42.650;23.386;2023-04-08T01:16:46;29.77;;;17.73;;
18789;SDS011;9523;42.650;23.386;2023-04-08T01:19:16;26.77;;;17.03;;
18789;SDS011;9523;42.650;23.386;2023-04-08T01:21:49;29.97;;;16.67;;
18789;SDS011;9523;42.650;23.386;2023-04-08T01:24:18;24.43;;;16.37;;
18789;SDS011;9523;42.650;23.386;2023-04-08T01:26:52;30.67;;;17.93;;
18789;SDS011;9523;42.650;23.386;2023-04-08T01:29:22;23.57;;;16.90;;
18789;SDS011;9523;42.650;23.386;2023-04-08T01:31:51;26.33;;;16.83;;
18789;SDS011;9523;42.650;23.386;2023-04-08T01:34:19;26.97;;;17.90;;
18789;SDS011;9523;42.650;23.386;2023-04-08T01:36:47;23.33;;;16.50;;
18789;SDS011;9523;42.650;23.386;2023-04-08T01:39:15;24.63;;;16.73;;
18789;SDS011;9523;42.650;23.386;2023-04-08T01:41:45;25.90;;;16.87;;
18789;SDS011;9523;42.650;23.386;2023-04-08T01:44:15;24.03;;;15.30;;
18789;SDS011;9523;42.650;23.386;2023-04-08T01:46:44;22.20;;;15.00;;
18789;SDS011;9523;42.650;23.386;2023-04-08T01:49:11;22.00;;;15.63;;
18789;SDS011;9523;42.650;23.386;2023-04-08T01:51:39;23.00;;;13.90;;
18789;SDS011;9523;42.650;23.386;2023-04-08T01:54:10;16.03;;;12.10;;
18789;SDS011;9523;42.650;23.386;2023-04-08T01:56:38;18.33;;;11.77;;
18789;SDS011;9523;42.650;23.386;2023-04-08T01:59:08;18.83;;;11.97;;
18789;SDS011;9523;42.650;23.386;2023-04-08T02:01:38;16.57;;;11.30;;
18789;SDS011;9523;42.650;23.386;2023-04-08T02:04:07;18.47;;;11.40;;
18789;SDS011;9523;42.650;23.386;2023-04-08T02:06:33;22.07;;;11.47;;
18789;SDS011;9523;42.650;23.386;2023-04-08T02:09:02;19.30;;;12.17;;
18789;SDS011;9523;42.650;23.386;2023-04-08T02:11:29;15.83;;;10.80;;
18789;SDS011;9523;42.650;23.386;2023-04-08T02:13:56;14.73;;;10.73;;
18789;SDS011;9523;42.650;23.386;2023-04-08T02:16:28;15.53;;;11.80;;
18789;SDS011;9523;42.650;23.386;2023-04-08T02:19:01;15.10;;;10.50;;
18789;SDS011;9523;42.650;23.386;2023-04-08T02:21:35;14.40;;;10.40;;
18789;SDS011;9523;42.650;23.386;2023-04-08T02:24:08;15.07;;;10.90;;
18789;SDS011;9523;42.650;23.386;2023-04-08T02:26:39;14.67;;;11.43;;
18789;SDS011;9523;42.650;23.386;2023-04-08T02:29:08;17.27;;;10.83;;
18789;SDS011;9523;42.650;23.386;2023-04-08T02:31:39;14.30;;;11.17;;
18789;SDS011;9523;42.650;23.386;2023-04-08T02:34:09;17.20;;;10.53;;
18789;SDS011;9523;42.650;23.386;2023-04-08T02:36:36;15.57;;;11.13;;
18789;SDS011;9523;42.650;23.386;2023-04-08T02:39:05;17.80;;;10.73;;
18789;SDS011;9523;42.650;23.386;2023-04-08T02:41:32;15.50;;;10.77;;
18789;SDS011;9523;42.650;23.386;2023-04-08T02:43:59;17.37;;;11.37;;
18789;SDS011;9523;42.650;23.386;2023-04-08T02:46:28;12.67;;;9.60;;
18789;SDS011;9523;42.650;23.386;2023-04-08T02:48:55;15.93;;;10.93;;
18789;SDS011;9523;42.650;23.386;2023-04-08T02:51:24;15.97;;;10.60;;
18789;SDS011;9523;42.650;23.386;2023-04-08T02:53:52;15.50;;;10.97;;
18789;SDS011;9523;42.650;23.386;2023-04-08T02:56:19;16.47;;;11.80;;
18789;SDS011;9523;42.650;23.386;2023-04-08T02:58:46;15.43;;;11.40;;
18789;SDS011;9523;42.650;23.386;2023-04-08T03:01:13;17.57;;;13.17;;
18789;SDS011;9523;42.650;23.386;2023-04-08T03:03:40;20.10;;;14.20;;
18789;SDS011;9523;42.650;23.386;2023-04-08T03:06:07;20.13;;;14.23;;
18789;SDS011;9523;42.650;23.386;2023-04-08T03:08:38;23.00;;;16.47;;
18789;SDS011;9523;42.650;23.386;2023-04-08T03:11:05;29.63;;;19.07;;
18789;SDS011;9523;42.650;23.386;2023-04-08T03:13:33;30.77;;;18.93;;
18789;SDS011;9523;42.650;23.386;2023-04-08T03:16:03;29.53;;;20.03;;
18789;SDS011;9523;42.650;23.386;2023-04-08T03:18:30;29.73;;;19.17;;
18789;SDS011;9523;42.650;23.386;2023-04-08T03:20:57;27.57;;;18.27;;
18789;SDS011;9523;42.650;23.386;2023-04-08T03:23:23;25.17;;;17.90;;
18789;SDS011;9523;42.650;23.386;2023-04-08T03:25:52;27.57;;;18.00;;
18789;SDS011;9523;42.650;23.386;2023-04-08T03:28:18;27.70;;;18.80;;
18789;SDS011;9523;42.650;23.386;2023-04-08T03:30:45;28.63;;;19.23;;
18789;SDS011;9523;42.650;23.386;2023-04-08T03:33:12;32.30;;;19.60;;
18789;SDS011;9523;42.650;23.386;2023-04-08T03:35:39;33.13;;;20.03;;
18789;SDS011;9523;42.650;23.386;2023-04-08T03:38:06;41.93;;;28.10;;
18789;SDS011;9523;42.650;23.386;2023-04-08T03:40:33;52.47;;;33.10;;
18789;SDS011;9523;42.650;23.386;2023-04-08T03:43:01;45.80;;;31.07;;
18789;SDS011;9523;42.650;23.386;2023-04-08T03:45:29;53.90;;;33.67;;
18789;SDS011;9523;42.650;23.386;2023-04-08T03:47:56;75.90;;;46.17;;
18789;SDS011;9523;42.650;23.386;2023-04-08T03:50:23;59.50;;;38.47;;
18789;SDS011;9523;42.650;23.386;2023-04-08T03:52:50;59.53;;;36.67;;
18789;SDS011;9523;42.650;23.386;2023-04-08T03:55:17;51.30;;;33.37;;
18789;SDS011;9523;42.650;23.386;2023-04-08T03:57:44;51.30;;;32.77;;
18789;SDS011;9523;42.650;23.386;2023-04-08T04:00:12;47.80;;;28.67;;
18789;SDS011;9523;42.650;23.386;2023-04-08T04:02:40;44.10;;;27.47;;
18789;SDS011;9523;42.650;23.386;2023-04-08T04:05:07;30.47;;;22.30;;
18789;SDS011;9523;42.650;23.386;2023-04-08T04:07:34;28.70;;;18.93;;
18789;SDS011;9523;42.650;23.386;2023-04-08T04:10:03;23.37;;;16.90;;
18789;SDS011;9523;42.650;23.386;2023-04-08T04:12:30;25.03;;;16.20;;
18789;SDS011;9523;42.650;23.386;2023-04-08T04:15:00;23.27;;;15.77;;
18789;SDS011;9523;42.650;23.386;2023-04-08T04:17:28;23.27;;;15.37;;
18789;SDS011;9523;42.650;23.386;2023-04-08T04:19:58;23.00;;;15.80;;
18789;SDS011;9523;42.650;23.386;2023-04-08T04:22:25;23.43;;;15.20;;
18789;SDS011;9523;42.650;23.386;2023-04-08T04:24:52;22.00;;;15.20;;
18789;SDS011;9523;42.650;23.386;2023-04-08T04:27:19;25.27;;;15.80;;
18789;SDS011;9523;42.650;23.386;2023-04-08T04:29:45;32.63;;;15.87;;
18789;SDS011;9523;42.650;23.386;2023-04-08T04:32:12;23.77;;;15.33;;
18789;SDS011;9523;42.650;23.386;2023-04-08T04:34:41;23.20;;;16.13;;
18789;SDS011;9523;42.650;23.386;2023-04-08T04:37:08;25.60;;;15.87;;
18789;SDS011;9523;42.650;23.386;2023-04-08T04:39:35;22.40;;;15.70;;
18789;SDS011;9523;42.650;23.386;2023-04-08T04:42:02;27.03;;;16.57;;
18789;SDS011;9523;42.650;23.386;2023-04-08T04:44:29;23.23;;;15.93;;
18789;SDS011;9523;42.650;23.386;2023-04-08T04:46:56;22.97;;;14.73;;
18789;SDS011;9523;42.650;23.386;2023-04-08T04:49:23;19.70;;;12.97;;
18789;SDS011;9523;42.650;23.386;2023-04-08T04:51:51;21.80;;;14.07;;
18789;SDS011;9523;42.650;23.386;2023-04-08T04:54:18;19.33;;;13.57;;
18789;SDS011;9523;42.650;23.386;2023-04-08T04:56:45;19.47;;;13.20;;
18789;SDS011;9523;42.650;23.386;2023-04-08T04:59:15;18.53;;;14.00;;
18789;SDS011;9523;42.650;23.386;2023-04-08T05:01:43;23.97;;;13.83;;
18789;SDS011;9523;42.650;23.386;2023-04-08T05:04:10;18.10;;;13.30;;
18789;SDS011;9523;42.650;23.386;2023-04-08T05:06:37;22.17;;;13.97;;
18789;SDS011;9523;42.650;23.386;2023-04-08T05:09:08;19.20;;;13.33;;
18789;SDS011;9523;42.650;23.386;2023-04-08T05:11:38;19.73;;;13.43;;
18789;SDS011;9523;42.650;23.386;2023-04-08T05:14:10;18.43;;;12.80;;
18789;SDS011;9523;42.650;23.386;2023-04-08T05:16:42;19.90;;;12.97;;
18789;SDS011;9523;42.650;23.386;2023-04-08T05:19:09;17.10;;;12.83;;
18789;SDS011;9523;42.650;23.386;2023-04-08T05:21:36;62.60;;;29.47;;
18789;SDS011;9523;42.650;23.386;2023-04-08T05:24:03;62.40;;;30.03;;
18789;SDS011;9523;42.650;23.386;2023-04-08T05:26:32;31.33;;;17.30;;
18789;SDS011;9523;42.650;23.386;2023-04-08T05:29:01;25.30;;;14.47;;
18789;SDS011;9523;42.650;23.386;2023-04-08T05:31:28;35.50;;;18.33;;
18789;SDS011;9523;42.650;23.386;2023-04-08T05:33:58;31.20;;;16.00;;
18789;SDS011;9523;42.650;23.386;2023-04-08T05:36:25;20.30;;;13.87;;
18789;SDS011;9523;42.650;23.386;2023-04-08T05:38:53;63.50;;;32.33;;
18789;SDS011;9523;42.650;23.386;2023-04-08T05:41:19;48.53;;;26.33;;
18789;SDS011;9523;42.650;23.386;2023-04-08T05:43:48;57.60;;;28.00;;
18789;SDS011;9523;42.650;23.386;2023-04-08T05:46:14;38.83;;;20.90;;
18789;SDS011;9523;42.650;23.386;2023-04-08T05:48:41;26.70;;;16.60;;
18789;SDS011;9523;42.650;23.386;2023-04-08T05:51:11;25.60;;;15.90;;
18789;SDS011;9523;42.650;23.386;2023-04-08T05:53:39;21.80;;;14.57;;
18789;SDS011;9523;42.650;23.386;2023-04-08T05:56:06;18.43;;;13.83;;
18789;SDS011;9523;42.650;23.386;2023-04-08T05:58:33;18.27;;;13.30;;
18789;SDS011;9523;42.650;23.386;2023-04-08T06:01:01;19.80;;;12.83;;
18789;SDS011;9523;42.650;23.386;2023-04-08T06:03:31;20.13;;;13.87;;
18789;SDS011;9523;42.650;23.386;2023-04-08T06:06:08;18.77;;;11.93;;
18789;SDS011;9523;42.650;23.386;2023-04-08T06:08:35;21.93;;;12.77;;
18789;SDS011;9523;42.650;23.386;2023-04-08T06:11:02;19.37;;;12.50;;
18789;SDS011;9523;42.650;23.386;2023-04-08T06:13:29;19.50;;;13.20;;
18789;SDS011;9523;42.650;23.386;2023-04-08T06:16:04;17.70;;;12.63;;
18789;SDS011;9523;42.650;23.386;2023-04-08T06:18:37;17.00;;;11.63;;
18789;SDS011;9523;42.650;23.386;2023-04-08T06:21:07;17.03;;;12.43;;
18789;SDS011;9523;42.650;23.386;2023-04-08T06:23:37;19.13;;;13.10;;
18789;SDS011;9523;42.650;23.386;2023-04-08T06:26:07;15.63;;;11.90;;
18789;SDS011;9523;42.650;23.386;2023-04-08T06:28:34;21.23;;;13.57;;
18789;SDS011;9523;42.650;23.386;2023-04-08T06:31:00;104.70;;;46.07;;
18789;SDS011;9523;42.650;23.386;2023-04-08T06:33:29;67.77;;;33.00;;
18789;SDS011;9523;42.650;23.386;2023-04-08T06:36:02;85.63;;;40.37;;
18789;SDS011;9523;42.650;23.386;2023-04-08T06:38:29;183.00;;;74.10;;
18789;SDS011;9523;42.650;23.386;2023-04-08T06:41:02;117.43;;;47.37;;
18789;SDS011;9523;42.650;23.386;2023-04-08T06:43:33;149.93;;;66.57;;
18789;SDS011;9523;42.650;23.386;2023-04-08T06:46:01;46.80;;;25.23;;
18789;SDS011;9523;42.650;23.386;2023-04-08T06:48:30;22.60;;;14.37;;
18789;SDS011;9523;42.650;23.386;2023-04-08T06:50:57;17.73;;;13.17;;
18789;SDS011;9523;42.650;23.386;2023-04-08T06:53:26;17.20;;;13.20;;
18789;SDS011;9523;42.650;23.386;2023-04-08T06:55:55;19.87;;;12.93;;
18789;SDS011;9523;42.650;23.386;2023-04-08T06:58:22;19.03;;;13.07;;
18789;SDS011;9523;42.650;23.386;2023-04-08T07:00:49;16.97;;;12.40;;
18789;SDS011;9523;42.650;23.386;2023-04-08T07:03:16;18.10;;;12.00;;
18789;SDS011;9523;42.650;23.386;2023-04-08T07:05:47;17.67;;;11.93;;
18789;SDS011;9523;42.650;23.386;2023-04-08T07:08:13;16.13;;;11.80;;
18789;SDS011;9523;42.650;23.386;2023-04-08T07:10:40;16.40;;;12.30;;
18789;SDS011;9523;42.650;23.386;2023-04-08T07:13:07;20.63;;;12.73;;
18789;SDS011;9523;42.650;23.386;2023-04-08T07:15:37;15.93;;;12.90;;
18789;SDS011;9523;42.650;23.386;2023-04-08T07:18:04;21.03;;;13.40;;
18789;SDS011;9523;42.650;23.386;2023-04-08T07:20:31;18.53;;;12.53;;
18789;SDS011;9523;42.650;23.386;2023-04-08T07:23:01;19.63;;;13.30;;
18789;SDS011;9523;42.650;23.386;2023-04-08T07:25:31;19.20;;;12.50;;
18789;SDS011;9523;42.650;23.386;2023-04-08T07:27:58;16.33;;;12.60;;
18789;SDS011;9523;42.650;23.386;2023-04-08T07:30:25;20.33;;;12.43;;
18789;SDS011;9523;42.650;23.386;2023-04-08T07:32:52;16.80;;;12.13;;
18789;SDS011;9523;42.650;23.386;2023-04-08T07:35:19;17.20;;;11.67;;
18789;SDS011;9523;42.650;23.386;2023-04-08T07:37:48;18.20;;;12.13;;
18789;SDS011;9523;42.650;23.386;2023-04-08T07:40:18;18.50;;;12.37;;
18789;SDS011;9523;42.650;23.386;2023-04-08T07:42:45;19.40;;;12.20;;
18789;SDS011;9523;42.650;23.386;2023-04-08T07:45:12;17.37;;;11.73;;
18789;SDS011;9523;42.650;23.386;2023-04-08T07:47:39;17.10;;;11.60;;
18789;SDS011;9523;42.650;23.386;2023-04-08T07:50:06;15.70;;;11.83;;
18789;SDS011;9523;42.650;23.386;2023-04-08T07:52:36;17.00;;;11.63;;
18789;SDS011;9523;42.650;23.386;2023-04-08T07:55:04;16.63;;;12.03;;
18789;SDS011;9523;42.650;23.386;2023-04-08T07:57:33;16.77;;;11.73;;
18789;SDS011;9523;42.650;23.386;2023-04-08T08:00:00;15.90;;;11.40;;
18789;SDS011;9523;42.650;23.386;2023-04-08T08:02:27;19.10;;;11.90;;
18789;SDS011;9523;42.650;23.386;2023-04-08T08:04:54;22.13;;;12.43;;
18789;SDS011;9523;42.650;23.386;2023-04-08T08:07:21;22.60;;;12.00;;
18789;SDS011;9523;42.650;23.386;2023-04-08T08:09:48;13.07;;;10.47;;
18789;SDS011;9523;42.650;23.386;2023-04-08T08:12:15;20.33;;;12.33;;
18789;SDS011;9523;42.650;23.386;2023-04-08T08:14:44;18.20;;;12.23;;
18789;SDS011;9523;42.650;23.386;2023-04-08T08:17:10;18.70;;;12.50;;
18789;SDS011;9523;42.650;23.386;2023-04-08T08:19:37;19.50;;;12.27;;
18789;SDS011;9523;42.650;23.386;2023-04-08T08:22:04;19.53;;;11.90;;
18789;SDS011;9523;42.650;23.386;2023-04-08T08:24:31;19.73;;;10.97;;
18789;SDS011;9523;42.650;23.386;2023-04-08T08:26:58;18.43;;;12.07;;
18789;SDS011;9523;42.650;23.386;2023-04-08T08:29:25;15.73;;;12.37;;
18789;SDS011;9523;42.650;23.386;2023-04-08T08:31:53;15.80;;;11.40;;
18789;SDS011;9523;42.650;23.386;2023-04-08T08:34:20;18.20;;;12.57;;
18789;SDS011;9523;42.650;23.386;2023-04-08T08:36:47;17.70;;;12.27;;
18789;SDS011;9523;42.650;23.386;2023-04-08T08:39:17;19.33;;;13.90;;
18789;SDS011;9523;42.650;23.386;2023-04-08T08:41:44;21.43;;;13.57;;
18789;SDS011;9523;42.650;23.386;2023-04-08T08:44:14;21.17;;;13.83;;
18789;SDS011;9523;42.650;23.386;2023-04-08T08:46:42;19.97;;;14.40;;
18789;SDS011;9523;42.650;23.386;2023-04-08T08:49:11;21.37;;;15.20;;
18789;SDS011;9523;42.650;23.386;2023-04-08T08:51:39;25.73;;;16.03;;
18789;SDS011;9523;42.650;23.386;2023-04-08T08:54:06;23.23;;;15.53;;
18789;SDS011;9523;42.650;23.386;2023-04-08T08:56:33;21.37;;;15.23;;
18789;SDS011;9523;42.650;23.386;2023-04-08T08:59:02;24.27;;;16.00;;
18789;SDS011;9523;42.650;23.386;2023-04-08T09:01:33;25.93;;;14.40;;
18789;SDS011;9523;42.650;23.386;2023-04-08T09:04:08;26.80;;;14.57;;
18789;SDS011;9523;42.650;23.386;2023-04-08T09:06:42;21.07;;;14.10;;
18789;SDS011;9523;42.650;23.386;2023-04-08T09:09:10;18.67;;;13.13;;
18789;SDS011;9523;42.650;23.386;2023-04-08T09:11:38;23.90;;;14.70;;
18789;SDS011;9523;42.650;23.386;2023-04-08T09:14:16;21.13;;;13.73;;
18789;SDS011;9523;42.650;23.386;2023-04-08T09:16:43;17.00;;;11.87;;
18789;SDS011;9523;42.650;23.386;2023-04-08T09:19:10;17.37;;;12.53;;
18789;SDS011;9523;42.650;23.386;2023-04-08T09:21:39;17.70;;;13.43;;
18789;SDS011;9523;42.650;23.386;2023-04-08T09:24:06;22.97;;;14.80;;
18789;SDS011;9523;42.650;23.386;2023-04-08T09:26:35;20.73;;;14.37;;
18789;SDS011;9523;42.650;23.386;2023-04-08T09:29:03;20.30;;;13.33;;
18789;SDS011;9523;42.650;23.386;2023-04-08T09:31:32;21.13;;;13.13;;
18789;SDS011;9523;42.650;23.386;2023-04-08T09:34:00;23.60;;;13.47;;
18789;SDS011;9523;42.650;23.386;2023-04-08T09:36:37;20.10;;;13.03;;
18789;SDS011;9523;42.650;23.386;2023-04-08T09:39:04;19.53;;;12.50;;
18789;SDS011;9523;42.650;23.386;2023-04-08T09:41:32;19.50;;;12.77;;
18789;SDS011;9523;42.650;23.386;2023-04-08T09:44:02;17.90;;;12.10;;
18789;SDS011;9523;42.650;23.386;2023-04-08T09:46:35;16.70;;;11.90;;
18789;SDS011;9523;42.650;23.386;2023-04-08T09:49:05;14.67;;;11.70;;
18789;SDS011;9523;42.650;23.386;2023-04-08T09:51:43;18.03;;;12.40;;
18789;SDS011;9523;42.650;23.386;2023-04-08T09:54:17;19.00;;;12.30;;
18789;SDS011;9523;42.650;23.386;2023-04-08T09:56:50;19.67;;;13.33;;
18789;SDS011;9523;42.650;23.386;2023-04-08T09:59:29;17.67;;;12.70;;
18789;SDS011;9523;42.650;23.386;2023-04-08T10:02:00;17.90;;;12.63;;
18789;SDS011;9523;42.650;23.386;2023-04-08T10:04:34;17.80;;;11.73;;
18789;SDS011;9523;42.650;23.386;2023-04-08T10:07:08;15.13;;;12.05;;
18789;SDS011;9523;42.650;23.386;2023-04-08T10:09:35;16.50;;;11.70;;
18789;SDS011;9523;42.650;23.386;2023-04-08T10:12:03;18.23;;;11.93;;
18789;SDS011;9523;42.650;23.386;2023-04-08T10:14:35;17.13;;;12.17;;
18789;SDS011;9523;42.650;23.386;2023-04-08T10:19:52;18.20;;;13.07;;
18789;SDS011;9523;42.650;23.386;2023-04-08T10:25:30;16.83;;;12.13;;
18789;SDS011;9523;42.650;23.386;2023-04-08T10:27:57;18.07;;;12.03;;
18789;SDS011;9523;42.650;23.386;2023-04-08T10:30:40;17.50;;;11.87;;
18789;SDS011;9523;42.650;23.386;2023-04-08T10:33:11;16.57;;;12.27;;
18789;SDS011;9523;42.650;23.386;2023-04-08T10:35:41;30.47;;;19.77;;
18789;SDS011;9523;42.650;23.386;2023-04-08T10:38:14;44.07;;;23.33;;
18789;SDS011;9523;42.650;23.386;2023-04-08T10:40:42;23.23;;;14.63;;
18789;SDS011;9523;42.650;23.386;2023-04-08T10:43:13;110.03;;;50.73;;
18789;SDS011;9523;42.650;23.386;2023-04-08T10:45:43;182.03;;;76.47;;
18789;SDS011;9523;42.650;23.386;2023-04-08T10:48:18;111.97;;;50.23;;
18789;SDS011;9523;42.650;23.386;2023-04-08T10:50:52;78.90;;;37.20;;
18789;SDS011;9523;42.650;23.386;2023-04-08T10:53:27;17.80;;;12.30;;
18789;SDS011;9523;42.650;23.386;2023-04-08T10:56:02;18.67;;;11.80;;
18789;SDS011;9523;42.650;23.386;2023-04-08T10:58:30;16.73;;;11.70;;
18789;SDS011;9523;42.650;23.386;2023-04-08T11:01:01;127.30;;;55.80;;
18789;SDS011;9523;42.650;23.386;2023-04-08T11:03:30;63.97;;;32.70;;
18789;SDS011;9523;42.650;23.386;2023-04-08T11:05:58;52.37;;;26.23;;
18789;SDS011;9523;42.650;23.386;2023-04-08T11:08:30;54.57;;;25.27;;
18789;SDS011;9523;42.650;23.386;2023-04-08T11:10:58;25.80;;;14.97;;
18789;SDS011;9523;42.650;23.386;2023-04-08T11:13:32;21.65;;;13.30;;
18789;SDS011;9523;42.650;23.386;2023-04-08T11:16:02;21.55;;;13.02;;
18789;SDS011;9523;42.650;23.386;2023-04-08T11:18:29;15.40;;;10.32;;
18789;SDS011;9523;42.650;23.386;2023-04-08T11:21:00;16.17;;;11.52;;
18789;SDS011;9523;42.650;23.386;2023-04-08T11:23:27;15.68;;;10.10;;
18789;SDS011;9523;42.650;23.386;2023-04-08T11:25:56;84.35;;;45.03;;
18789;SDS011;9523;42.650;23.386;2023-04-08T11:28:23;19.52;;;12.65;;
18789;SDS011;9523;42.650;23.386;2023-04-08T11:30:54;21.48;;;13.93;;
18789;SDS011;9523;42.650;23.386;2023-04-08T11:33:24;58.53;;;30.43;;
18789;SDS011;9523;42.650;23.386;2023-04-08T11:35:51;41.37;;;24.47;;
18789;SDS011;9523;42.650;23.386;2023-04-08T11:38:21;23.77;;;14.23;;
18789;SDS011;9523;42.650;23.386;2023-04-08T11:40:52;103.87;;;53.63;;
18789;SDS011;9523;42.650;23.386;2023-04-08T11:43:20;30.20;;;16.63;;
18789;SDS011;9523;42.650;23.386;2023-04-08T11:45:47;14.40;;;8.95;;
18789;SDS011;9523;42.650;23.386;2023-04-08T11:48:18;12.90;;;9.88;;
18789;SDS011;9523;42.650;23.386;2023-04-08T11:50:45;13.75;;;9.68;;
18789;SDS011;9523;42.650;23.386;2023-04-08T11:53:18;12.03;;;9.20;;
18789;SDS011;9523;42.650;23.386;2023-04-08T11:55:46;13.07;;;9.53;;
18789;SDS011;9523;42.650;23.386;2023-04-08T11:58:15;13.87;;;10.20;;
18789;SDS011;9523;42.650;23.386;2023-04-08T12:00:42;15.53;;;9.53;;
18789;SDS011;9523;42.650;23.386;2023-04-08T12:03:09;11.97;;;9.20;;
18789;SDS011;9523;42.650;23.386;2023-04-08T12:05:37;15.10;;;9.43;;
18789;SDS011;9523;42.650;23.386;2023-04-08T12:08:04;13.67;;;9.80;;
18789;SDS011;9523;42.650;23.386;2023-04-08T12:10:31;11.27;;;8.83;;
18789;SDS011;9523;42.650;23.386;2023-04-08T12:12:58;10.27;;;8.00;;
18789;SDS011;9523;42.650;23.386;2023-04-08T12:15:27;9.93;;;7.90;;
18789;SDS011;9523;42.650;23.386;2023-04-08T12:17:54;7.77;;;6.30;;
18789;SDS011;9523;42.650;23.386;2023-04-08T12:20:21;8.85;;;6.82;;
18789;SDS011;9523;42.650;23.386;2023-04-08T12:22:48;8.13;;;6.95;;
18789;SDS011;9523;42.650;23.386;2023-04-08T12:25:15;9.43;;;7.10;;
18789;SDS011;9523;42.650;23.386;2023-04-08T12:27:45;8.18;;;6.40;;
18789;SDS011;9523;42.650;23.386;2023-04-08T12:30:12;8.40;;;6.97;;
18789;SDS011;9523;42.650;23.386;2023-04-08T12:32:41;8.32;;;6.80;;
18789;SDS011;9523;42.650;23.386;2023-04-08T12:35:10;8.63;;;6.63;;
18789;SDS011;9523;42.650;23.386;2023-04-08T12:37:37;9.40;;;7.50;;
18789;SDS011;9523;42.650;23.386;2023-04-08T12:40:07;11.07;;;8.23;;
18789;SDS011;9523;42.650;23.386;2023-04-08T12:42:35;61.40;;;32.47;;
18789;SDS011;9523;42.650;23.386;2023-04-08T12:45:05;10.25;;;7.80;;
18789;SDS011;9523;42.650;23.386;2023-04-08T12:47:33;8.68;;;6.97;;
18789;SDS011;9523;42.650;23.386;2023-04-08T12:50:04;146.02;;;70.28;;
18789;SDS011;9523;42.650;23.386;2023-04-08T12:52:33;34.20;;;19.48;;
18789;SDS011;9523;42.650;23.386;2023-04-08T12:55:00;68.30;;;36.20;;
18789;SDS011;9523;42.650;23.386;2023-04-08T12:57:27;39.22;;;21.92;;
18789;SDS011;9523;42.650;23.386;2023-04-08T12:59:57;10.43;;;7.85;;
18789;SDS011;9523;42.650;23.386;2023-04-08T13:02:24;8.25;;;6.43;;
18789;SDS011;9523;42.650;23.386;2023-04-08T13:04:58;8.27;;;7.03;;
18789;SDS011;9523;42.650;23.386;2023-04-08T13:07:26;8.50;;;7.23;;
18789;SDS011;9523;42.650;23.386;2023-04-08T13:09:53;11.63;;;7.90;;
18789;SDS011;9523;42.650;23.386;2023-04-08T13:12:23;11.67;;;8.53;;
18789;SDS011;9523;42.650;23.386;2023-04-08T13:14:51;12.20;;;7.97;;
18789;SDS011;9523;42.650;23.386;2023-04-08T13:17:19;9.23;;;7.50;;
18789;SDS011;9523;42.650;23.386;2023-04-08T13:19:46;11.77;;;8.50;;
18789;SDS011;9523;42.650;23.386;2023-04-08T13:22:14;13.73;;;9.47;;
18789;SDS011;9523;42.650;23.386;2023-04-08T13:24:42;11.90;;;8.30;;
18789;SDS011;9523;42.650;23.386;2023-04-08T13:27:09;21.47;;;11.03;;
18789;SDS011;9523;42.650;23.386;2023-04-08T13:29:39;11.07;;;8.63;;
18789;SDS011;9523;42.650;23.386;2023-04-08T13:32:06;16.10;;;9.40;;
18789;SDS011;9523;42.650;23.386;2023-04-08T13:34:33;30.73;;;17.83;;
18789;SDS011;9523;42.650;23.386;2023-04-08T13:37:00;18.10;;;12.80;;
18789;SDS011;9523;42.650;23.386;2023-04-08T13:39:27;13.10;;;9.50;;
18789;SDS011;9523;42.650;23.386;2023-04-08T13:41:58;17.07;;;11.40;;
18789;SDS011;9523;42.650;23.386;2023-04-08T13:44:27;30.23;;;17.50;;
18789;SDS011;9523;42.650;23.386;2023-04-08T13:46:57;21.97;;;13.70;;
18789;SDS011;9523;42.650;23.386;2023-04-08T13:49:24;13.30;;;7.90;;
18789;SDS011;9523;42.650;23.386;2023-04-08T13:51:51;10.57;;;8.40;;
18789;SDS011;9523;42.650;23.386;2023-04-08T13:54:18;13.37;;;9.10;;
18789;SDS011;9523;42.650;23.386;2023-04-08T13:56:45;11.47;;;8.37;;
18789;SDS011;9523;42.650;23.386;2023-04-08T13:59:13;10.13;;;8.00;;
18789;SDS011;9523;42.650;23.386;2023-04-08T14:01:43;12.20;;;8.30;;
18789;SDS011;9523;42.650;23.386;2023-04-08T14:04:11;14.33;;;9.93;;
18789;SDS011;9523;42.650;23.386;2023-04-08T14:06:39;25.03;;;14.93;;
18789;SDS011;9523;42.650;23.386;2023-04-08T14:09:06;12.07;;;7.83;;
18789;SDS011;9523;42.650;23.386;2023-04-08T14:11:32;10.53;;;8.20;;
18789;SDS011;9523;42.650;23.386;2023-04-08T14:13:59;12.60;;;9.37;;
18789;SDS011;9523;42.650;23.386;2023-04-08T14:16:28;12.97;;;9.73;;
18789;SDS011;9523;42.650;23.386;2023-04-08T14:18:56;12.83;;;9.53;;
18789;SDS011;9523;42.650;23.386;2023-04-08T14:21:26;14.17;;;9.20;;
18789;SDS011;9523;42.650;23.386;2023-04-08T14:23:53;13.00;;;9.67;;
18789;SDS011;9523;42.650;23.386;2023-04-08T14:26:21;14.83;;;9.77;;
18789;SDS011;9523;42.650;23.386;2023-04-08T14:28:48;13.37;;;9.70;;
18789;SDS011;9523;42.650;23.386;2023-04-08T14:31:15;12.83;;;9.53;;
18789;SDS011;9523;42.650;23.386;2023-04-08T14:33:47;13.43;;;10.20;;
18789;SDS011;9523;42.650;23.386;2023-04-08T14:36:14;14.03;;;9.57;;
18789;SDS011;9523;42.650;23.386;2023-04-08T14:38:41;12.90;;;9.80;;